sensor_id;sensor_type;location;lat;lon;timestamp;pressure;altitude;pressure_sealevel;temperature;humidity
22025;BME280;11176;51.448;6.650;2023-04-01T00:00:58;45504.16;;;-141.29;100.00
22025;BME280;11176;51.448;6.650;2023-04-01T00:03:27;45522.13;;;-141.29;100.00
22025;BME280;11176;51.448;6.650;2023-04-01T00:05:57;45518.13;;;-141.29;100.00
22025;BME280;11176;51.448;6.650;2023-04-01T00:08:25;45516.13;;;-141.29;100.00
22025;BME280;11176;51.448;6.650;2023-04-01T00:10:52;45528.13;;;-141.29;100.00
22025;BME280;11176;51.448;6.650;2023-04-01T00:13:19;45524.13;;;-141.29;100.00
22025;BME280;11176;51.448;6.650;2023-04-01T00:15:47;45538.13;;;-141.29;100.00
22025;BME280;11176;51.448;6.650;2023-04-01T00:18:14;45520.13;;;-141.29;100.00
22025;BME280;11176;51.448;6.650;2023-04-01T00:20:45;45512.16;;;-141.29;100.00
22025;BME280;11176;51.448;6.650;2023-04-01T00:23:12;45506.16;;;-141.29;100.00
22025;BME280;11176;51.448;6.650;2023-04-01T00:25:39;45498.16;;;-141.29;100.00
22025;BME280;11176;51.448;6.650;2023-04-01T00:28:05;45522.13;;;-141.29;100.00
22025;BME280;11176;51.448;6.650;2023-04-01T00:30:32;45522.13;;;-141.29;100.00
22025;BME280;11176;51.448;6.650;2023-04-01T00:32:58;45526.13;;;-141.29;100.00
22025;BME280;11176;51.448;6.650;2023-04-01T00:35:25;45490.16;;;-141.29;100.00
22025;BME280;11176;51.448;6.650;2023-04-01T00:37:51;45510.16;;;-141.29;100.00
22025;BME280;11176;51.448;6.650;2023-04-01T00:40:27;45526.13;;;-141.29;100.00
22025;BME280;11176;51.448;6.650;2023-04-01T00:42:55;45502.16;;;-141.29;100.00
22025;BME280;11176;51.448;6.650;2023-04-01T00:45:41;45514.13;;;-141.29;100.00
22025;BME280;11176;51.448;6.650;2023-04-01T00:48:15;45526.13;;;-141.29;100.00
22025;BME280;11176;51.448;6.650;2023-04-01T00:50:47;45534.13;;;-141.29;100.00
22025;BME280;11176;51.448;6.650;2023-04-01T00:53:16;45558.09;;;-141.29;100.00
22025;BME280;11176;51.448;6.650;2023-04-01T00:55:50;45510.16;;;-141.29;100.00
22025;BME280;11176;51.448;6.650;2023-04-01T00:58:18;45506.16;;;-141.29;100.00
22025;BME280;11176;51.448;6.650;2023-04-01T01:00:48;45514.13;;;-141.29;100.00
22025;BME280;11176;51.448;6.650;2023-04-01T01:03:15;45510.16;;;-141.29;100.00
22025;BME280;11176;51.448;6.650;2023-04-01T01:06:07;45526.13;;;-141.29;100.00
22025;BME280;11176;51.448;6.650;2023-04-01T01:09:13;45510.16;;;-141.29;100.00
22025;BME280;11176;51.448;6.650;2023-04-01T01:11:49;45508.16;;;-141.29;100.00
22025;BME280;11176;51.448;6.650;2023-04-01T01:20:02;45510.16;;;-141.29;100.00
22025;BME280;11176;51.448;6.650;2023-04-01T01:23:23;45530.13;;;-141.29;100.00
22025;BME280;11176;51.448;6.650;2023-04-01T01:29:12;45506.16;;;-141.29;100.00
22025;BME280;11176;51.448;6.650;2023-04-01T01:37:01;45526.13;;;-141.29;100.00
22025;BME280;11176;51.448;6.650;2023-04-01T01:39:31;45526.13;;;-141.29;100.00
22025;BME280;11176;51.448;6.650;2023-04-01T01:42:04;45522.13;;;-141.29;100.00
22025;BME280;11176;51.448;6.650;2023-04-01T01:44:33;45530.13;;;-141.29;100.00
22025;BME280;11176;51.448;6.650;2023-04-01T01:47:01;45514.13;;;-141.29;100.00
22025;BME280;11176;51.448;6.650;2023-04-01T01:49:29;45554.09;;;-141.29;100.00
22025;BME280;11176;51.448;6.650;2023-04-01T01:51:58;45514.13;;;-141.29;100.00
22025;BME280;11176;51.448;6.650;2023-04-01T01:54:25;45540.13;;;-141.29;100.00
22025;BME280;11176;51.448;6.650;2023-04-01T01:56:58;45526.13;;;-141.29;100.00
22025;BME280;11176;51.448;6.650;2023-04-01T01:59:28;45494.16;;;-141.29;100.00
22025;BME280;11176;51.448;6.650;2023-04-01T02:01:56;45506.16;;;-141.29;100.00
22025;BME280;11176;51.448;6.650;2023-04-01T02:04:23;45506.16;;;-141.29;100.00
22025;BME280;11176;51.448;6.650;2023-04-01T02:07:02;45520.13;;;-141.29;100.00
22025;BME280;11176;51.448;6.650;2023-04-01T02:09:31;45524.13;;;-141.29;100.00
22025;BME280;11176;51.448;6.650;2023-04-01T02:12:03;45530.13;;;-141.29;100.00
22025;BME280;11176;51.448;6.650;2023-04-01T02:14:41;45516.13;;;-141.29;100.00
22025;BME280;11176;51.448;6.650;2023-04-01T02:17:13;45538.13;;;-141.29;100.00
22025;BME280;11176;51.448;6.650;2023-04-01T02:19:47;45518.13;;;-141.29;100.00
22025;BME280;11176;51.448;6.650;2023-04-01T02:22:16;45526.13;;;-141.29;100.00
22025;BME280;11176;51.448;6.650;2023-04-01T02:24:43;45510.16;;;-141.29;100.00
22025;BME280;11176;51.448;6.650;2023-04-01T02:27:12;45508.16;;;-141.29;100.00
22025;BME280;11176;51.448;6.650;2023-04-01T02:29:38;45514.13;;;-141.29;100.00
22025;BME280;11176;51.448;6.650;2023-04-01T02:32:07;45518.13;;;-141.29;100.00
22025;BME280;11176;51.448;6.650;2023-04-01T02:34:35;45534.13;;;-141.29;100.00
22025;BME280;11176;51.448;6.650;2023-04-01T02:37:02;45554.09;;;-141.29;100.00
22025;BME280;11176;51.448;6.650;2023-04-01T02:39:29;45528.13;;;-141.29;100.00
22025;BME280;11176;51.448;6.650;2023-04-01T02:41:55;45518.13;;;-141.29;100.00
22025;BME280;11176;51.448;6.650;2023-04-01T02:44:22;45526.13;;;-141.29;100.00
22025;BME280;11176;51.448;6.650;2023-04-01T02:46:48;45510.16;;;-141.29;100.00
22025;BME280;11176;51.448;6.650;2023-04-01T02:49:15;45550.13;;;-141.29;100.00
22025;BME280;11176;51.448;6.650;2023-04-01T02:51:41;45530.13;;;-141.29;100.00
22025;BME280;11176;51.448;6.650;2023-04-01T02:54:09;45534.13;;;-141.29;100.00
22025;BME280;11176;51.448;6.650;2023-04-01T02:56:35;45522.13;;;-141.29;100.00
22025;BME280;11176;51.448;6.650;2023-04-01T02:59:02;45514.13;;;-141.29;100.00
22025;BME280;11176;51.448;6.650;2023-04-01T03:01:29;45516.13;;;-141.29;100.00
22025;BME280;11176;51.448;6.650;2023-04-01T03:03:56;45522.13;;;-141.29;100.00
22025;BME280;11176;51.448;6.650;2023-04-01T03:06:23;45522.13;;;-141.29;100.00
22025;BME280;11176;51.448;6.650;2023-04-01T03:08:49;45542.13;;;-141.29;100.00
22025;BME280;11176;51.448;6.650;2023-04-01T03:11:16;45540.13;;;-141.29;100.00
22025;BME280;11176;51.448;6.650;2023-04-01T03:13:42;45526.13;;;-141.29;100.00
22025;BME280;11176;51.448;6.650;2023-04-01T03:16:10;45544.13;;;-141.29;100.00
22025;BME280;11176;51.448;6.650;2023-04-01T03:18:36;45530.13;;;-141.29;100.00
22025;BME280;11176;51.448;6.650;2023-04-01T03:21:21;45534.13;;;-141.29;100.00
22025;BME280;11176;51.448;6.650;2023-04-01T03:23:48;45546.13;;;-141.29;100.00
22025;BME280;11176;51.448;6.650;2023-04-01T03:26:15;45526.13;;;-141.29;100.00
22025;BME280;11176;51.448;6.650;2023-04-01T03:28:42;45520.13;;;-141.29;100.00
22025;BME280;11176;51.448;6.650;2023-04-01T03:31:09;45534.13;;;-141.29;100.00
22025;BME280;11176;51.448;6.650;2023-04-01T03:33:42;45522.13;;;-141.29;100.00
22025;BME280;11176;51.448;6.650;2023-04-01T03:36:09;45536.13;;;-141.29;100.00
22025;BME280;11176;51.448;6.650;2023-04-01T03:38:40;45526.13;;;-141.29;100.00
22025;BME280;11176;51.448;6.650;2023-04-01T03:41:11;45540.13;;;-141.29;100.00
22025;BME280;11176;51.448;6.650;2023-04-01T03:43:38;45534.13;;;-141.29;100.00
22025;BME280;11176;51.448;6.650;2023-04-01T03:46:05;45522.13;;;-141.29;100.00
22025;BME280;11176;51.448;6.650;2023-04-01T03:48:31;45550.13;;;-141.29;100.00
22025;BME280;11176;51.448;6.650;2023-04-01T03:50:58;45520.13;;;-141.29;100.00
22025;BME280;11176;51.448;6.650;2023-04-01T03:53:25;45534.13;;;-141.29;100.00
22025;BME280;11176;51.448;6.650;2023-04-01T03:55:53;45542.13;;;-141.29;100.00
22025;BME280;11176;51.448;6.650;2023-04-01T03:58:20;45526.13;;;-141.29;100.00
22025;BME280;11176;51.448;6.650;2023-04-01T04:00:47;45554.09;;;-141.29;100.00
22025;BME280;11176;51.448;6.650;2023-04-01T04:03:14;45518.13;;;-141.29;100.00
22025;BME280;11176;51.448;6.650;2023-04-01T04:05:47;45530.13;;;-141.29;100.00
22025;BME280;11176;51.448;6.650;2023-04-01T04:08:16;45542.13;;;-141.29;100.00
22025;BME280;11176;51.448;6.650;2023-04-01T04:10:42;45534.13;;;-141.29;100.00
22025;BME280;11176;51.448;6.650;2023-04-01T04:13:09;45538.13;;;-141.29;100.00
22025;BME280;11176;51.448;6.650;2023-04-01T04:15:43;45546.13;;;-141.29;100.00
22025;BME280;11176;51.448;6.650;2023-04-01T04:18:10;45538.13;;;-141.29;100.00
22025;BME280;11176;51.448;6.650;2023-04-01T04:20:43;45546.13;;;-141.29;100.00
22025;BME280;11176;51.448;6.650;2023-04-01T04:23:11;45530.13;;;-141.29;100.00
22025;BME280;11176;51.448;6.650;2023-04-01T04:25:39;45536.13;;;-141.29;100.00
22025;BME280;11176;51.448;6.650;2023-04-01T04:28:06;45522.13;;;-141.29;100.00
22025;BME280;11176;51.448;6.650;2023-04-01T04:30:33;45548.13;;;-141.29;100.00
22025;BME280;11176;51.448;6.650;2023-04-01T04:33:00;45546.13;;;-141.29;100.00
22025;BME280;11176;51.448;6.650;2023-04-01T04:35:28;45526.13;;;-141.29;100.00
22025;BME280;11176;51.448;6.650;2023-04-01T04:37:54;45522.13;;;-141.29;100.00
22025;BME280;11176;51.448;6.650;2023-04-01T04:40:22;45522.13;;;-141.29;100.00
22025;BME280;11176;51.448;6.650;2023-04-01T04:42:48;45518.13;;;-141.29;100.00
22025;BME280;11176;51.448;6.650;2023-04-01T04:45:16;45542.13;;;-141.29;100.00
22025;BME280;11176;51.448;6.650;2023-04-01T04:47:51;45546.13;;;-141.29;100.00
22025;BME280;11176;51.448;6.650;2023-04-01T04:50:18;45554.09;;;-141.29;100.00
22025;BME280;11176;51.448;6.650;2023-04-01T04:52:44;45556.09;;;-141.29;100.00
22025;BME280;11176;51.448;6.650;2023-04-01T04:55:11;45510.16;;;-141.29;100.00
22025;BME280;11176;51.448;6.650;2023-04-01T04:57:41;45520.13;;;-141.29;100.00
22025;BME280;11176;51.448;6.650;2023-04-01T05:00:08;45546.13;;;-141.29;100.00
22025;BME280;11176;51.448;6.650;2023-04-01T05:02:47;45550.13;;;-141.29;100.00
22025;BME280;11176;51.448;6.650;2023-04-01T05:05:13;45548.13;;;-141.29;100.00
22025;BME280;11176;51.448;6.650;2023-04-01T05:07:40;45550.13;;;-141.29;100.00
22025;BME280;11176;51.448;6.650;2023-04-01T05:10:07;45538.13;;;-141.29;100.00
22025;BME280;11176;51.448;6.650;2023-04-01T05:12:33;45548.13;;;-141.29;100.00
22025;BME280;11176;51.448;6.650;2023-04-01T05:15:05;45518.13;;;-141.29;100.00
22025;BME280;11176;51.448;6.650;2023-04-01T05:17:32;45550.13;;;-141.29;100.00
22025;BME280;11176;51.448;6.650;2023-04-01T05:20:01;45530.13;;;-141.29;100.00
22025;BME280;11176;51.448;6.650;2023-04-01T05:22:28;45546.13;;;-141.29;100.00
22025;BME280;11176;51.448;6.650;2023-04-01T05:24:54;45546.13;;;-141.29;100.00
22025;BME280;11176;51.448;6.650;2023-04-01T05:27:22;45542.13;;;-141.29;100.00
22025;BME280;11176;51.448;6.650;2023-04-01T05:29:50;45538.13;;;-141.29;100.00
22025;BME280;11176;51.448;6.650;2023-04-01T05:32:41;45546.13;;;-141.29;100.00
22025;BME280;11176;51.448;6.650;2023-04-01T05:35:07;45540.13;;;-141.29;100.00
22025;BME280;11176;51.448;6.650;2023-04-01T05:37:35;45546.13;;;-141.29;100.00
22025;BME280;11176;51.448;6.650;2023-04-01T05:40:03;45540.13;;;-141.29;100.00
22025;BME280;11176;51.448;6.650;2023-04-01T05:42:30;45542.13;;;-141.29;100.00
22025;BME280;11176;51.448;6.650;2023-04-01T05:44:57;45544.13;;;-141.29;100.00
22025;BME280;11176;51.448;6.650;2023-04-01T05:47:42;45540.13;;;-141.29;100.00
22025;BME280;11176;51.448;6.650;2023-04-01T05:50:09;45534.13;;;-141.29;100.00
22025;BME280;11176;51.448;6.650;2023-04-01T05:52:37;45536.13;;;-141.29;100.00
22025;BME280;11176;51.448;6.650;2023-04-01T05:55:04;45526.13;;;-141.29;100.00
22025;BME280;11176;51.448;6.650;2023-04-01T05:57:31;45538.13;;;-141.29;100.00
22025;BME280;11176;51.448;6.650;2023-04-01T05:59:58;45546.13;;;-141.29;100.00
22025;BME280;11176;51.448;6.650;2023-04-01T06:02:25;45546.13;;;-141.29;100.00
22025;BME280;11176;51.448;6.650;2023-04-01T06:05:19;45538.13;;;-141.29;100.00
22025;BME280;11176;51.448;6.650;2023-04-01T06:07:47;45540.13;;;-141.29;100.00
22025;BME280;11176;51.448;6.650;2023-04-01T06:10:17;45550.13;;;-141.29;100.00
22025;BME280;11176;51.448;6.650;2023-04-01T06:12:59;45548.13;;;-141.29;100.00
22025;BME280;11176;51.448;6.650;2023-04-01T06:15:36;45534.13;;;-141.29;100.00
22025;BME280;11176;51.448;6.650;2023-04-01T06:38:49;45550.13;;;-141.29;100.00
22025;BME280;11176;51.448;6.650;2023-04-01T06:42:09;45538.13;;;-141.29;100.00
22025;BME280;11176;51.448;6.650;2023-04-01T06:45:33;45546.13;;;-141.29;100.00
22025;BME280;11176;51.448;6.650;2023-04-01T06:48:27;45530.13;;;-141.29;100.00
22025;BME280;11176;51.448;6.650;2023-04-01T06:54:28;45546.13;;;-141.29;100.00
22025;BME280;11176;51.448;6.650;2023-04-01T07:00:04;45552.13;;;-141.29;100.00
22025;BME280;11176;51.448;6.650;2023-04-01T07:03:01;45542.13;;;-141.29;100.00
22025;BME280;11176;51.448;6.650;2023-04-01T07:05:33;45542.13;;;-141.29;100.00
22025;BME280;11176;51.448;6.650;2023-04-01T07:08:03;45534.13;;;-141.29;100.00
22025;BME280;11176;51.448;6.650;2023-04-01T07:10:43;45538.13;;;-141.29;100.00
22025;BME280;11176;51.448;6.650;2023-04-01T07:13:38;45546.13;;;-141.29;100.00
22025;BME280;11176;51.448;6.650;2023-04-01T07:16:21;45530.13;;;-141.29;100.00
22025;BME280;11176;51.448;6.650;2023-04-01T07:19:09;45544.13;;;-141.29;100.00
22025;BME280;11176;51.448;6.650;2023-04-01T07:22:00;45530.13;;;-141.29;100.00
22025;BME280;11176;51.448;6.650;2023-04-01T07:24:44;45538.13;;;-141.29;100.00
22025;BME280;11176;51.448;6.650;2023-04-01T07:27:13;45562.09;;;-141.29;100.00
22025;BME280;11176;51.448;6.650;2023-04-01T07:29:42;45542.13;;;-141.29;100.00
22025;BME280;11176;51.448;6.650;2023-04-01T07:32:39;45526.13;;;-141.29;100.00
22025;BME280;11176;51.448;6.650;2023-04-01T07:38:08;42332.06;;;-141.29;100.00
22025;BME280;11176;51.448;6.650;2023-04-01T07:41:09;42342.06;;;-141.29;100.00
22025;BME280;11176;51.448;6.650;2023-04-01T07:49:17;42332.06;;;-141.29;100.00
22025;BME280;11176;51.448;6.650;2023-04-01T07:52:00;42318.09;;;-141.29;100.00
22025;BME280;11176;51.448;6.650;2023-04-01T07:57:24;42338.06;;;-141.29;100.00
22025;BME280;11176;51.448;6.650;2023-04-01T08:00:02;42334.06;;;-141.29;100.00
22025;BME280;11176;51.448;6.650;2023-04-01T08:05:55;42312.09;;;-141.29;100.00
22025;BME280;11176;51.448;6.650;2023-04-01T08:08:31;42326.09;;;-141.29;100.00
22025;BME280;11176;51.448;6.650;2023-04-01T08:11:41;42322.09;;;-141.29;100.00
22025;BME280;11176;51.448;6.650;2023-04-01T08:14:46;42332.06;;;-141.29;100.00
22025;BME280;11176;51.448;6.650;2023-04-01T08:20:12;42308.09;;;-141.29;100.00
22025;BME280;11176;51.448;6.650;2023-04-01T08:22:42;42322.09;;;-141.29;100.00
22025;BME280;11176;51.448;6.650;2023-04-01T08:25:24;42314.09;;;-141.29;100.00
22025;BME280;11176;51.448;6.650;2023-04-01T08:28:24;42338.06;;;-141.29;100.00
22025;BME280;11176;51.448;6.650;2023-04-01T08:31:04;42338.06;;;-141.29;100.00
22025;BME280;11176;51.448;6.650;2023-04-01T08:33:33;42332.06;;;-141.29;100.00
22025;BME280;11176;51.448;6.650;2023-04-01T08:36:10;42342.06;;;-141.29;100.00
22025;BME280;11176;51.448;6.650;2023-04-01T08:38:46;42346.03;;;-141.29;100.00
22025;BME280;11176;51.448;6.650;2023-04-01T08:50:19;42344.06;;;-141.29;100.00
22025;BME280;11176;51.448;6.650;2023-04-01T09:07:41;42374.00;;;-141.29;100.00
22025;BME280;11176;51.448;6.650;2023-04-01T09:10:36;42380.00;;;-141.29;100.00
22025;BME280;11176;51.448;6.650;2023-04-01T09:13:49;42405.94;;;-141.29;100.00
22025;BME280;11176;51.448;6.650;2023-04-01T09:19:32;42389.97;;;-141.29;100.00
22025;BME280;11176;51.448;6.650;2023-04-01T09:22:25;42403.94;;;-141.29;100.00
22025;BME280;11176;51.448;6.650;2023-04-01T09:25:44;42413.94;;;-141.29;100.00
22025;BME280;11176;51.448;6.650;2023-04-01T09:37:31;42425.91;;;-141.29;100.00
22025;BME280;11176;51.448;6.650;2023-04-01T09:46:11;42457.84;;;-141.29;100.00
22025;BME280;11176;51.448;6.650;2023-04-01T09:48:55;42453.88;;;-141.29;100.00
22025;BME280;11176;51.448;6.650;2023-04-01T09:51:41;42449.88;;;-141.29;100.00
22025;BME280;11176;51.448;6.650;2023-04-01T09:54:46;42447.88;;;-141.29;100.00
22025;BME280;11176;51.448;6.650;2023-04-01T10:00:37;42469.84;;;-141.29;100.00
22025;BME280;11176;51.448;6.650;2023-04-01T10:06:26;42477.81;;;-141.29;100.00
22025;BME280;11176;51.448;6.650;2023-04-01T10:12:18;42485.81;;;-141.29;100.00
22025;BME280;11176;51.448;6.650;2023-04-01T10:15:24;42461.84;;;-141.29;100.00
22025;BME280;11176;51.448;6.650;2023-04-01T10:21:16;42477.81;;;-141.29;100.00
22025;BME280;11176;51.448;6.650;2023-04-01T10:30:23;42505.78;;;-141.29;100.00
22025;BME280;11176;51.448;6.650;2023-04-01T10:45:57;42491.81;;;-141.29;100.00
22025;BME280;11176;51.448;6.650;2023-04-01T10:51:10;42497.78;;;-141.29;100.00
22025;BME280;11176;51.448;6.650;2023-04-01T11:00:49;42497.78;;;-141.29;100.00
22025;BME280;11176;51.448;6.650;2023-04-01T11:13:17;42501.78;;;-141.29;100.00
22025;BME280;11176;51.448;6.650;2023-04-01T11:44:21;42509.78;;;-141.29;100.00
22025;BME280;11176;51.448;6.650;2023-04-01T11:47:23;42511.78;;;-141.29;100.00
22025;BME280;11176;51.448;6.650;2023-04-01T11:50:04;42507.78;;;-141.29;100.00
22025;BME280;11176;51.448;6.650;2023-04-01T11:52:54;42511.78;;;-141.29;100.00
22025;BME280;11176;51.448;6.650;2023-04-01T11:55:40;42511.78;;;-141.29;100.00
22025;BME280;11176;51.448;6.650;2023-04-01T11:58:41;42505.78;;;-141.29;100.00
22025;BME280;11176;51.448;6.650;2023-04-01T12:10:15;42525.75;;;-141.29;100.00
22025;BME280;11176;51.448;6.650;2023-04-01T12:12:49;42541.72;;;-141.29;100.00
22025;BME280;11176;51.448;6.650;2023-04-01T12:20:51;42537.72;;;-141.29;100.00
22025;BME280;11176;51.448;6.650;2023-04-01T12:34:37;42557.69;;;-141.29;100.00
22025;BME280;11176;51.448;6.650;2023-04-01T12:37:36;42589.63;;;-141.29;100.00
22025;BME280;11176;51.448;6.650;2023-04-01T12:40:35;42581.66;;;-141.29;100.00
22025;BME280;11176;51.448;6.650;2023-04-01T12:45:33;42585.66;;;-141.29;100.00
22025;BME280;11176;51.448;6.650;2023-04-01T12:48:09;42609.59;;;-141.29;100.00
22025;BME280;11176;51.448;6.650;2023-04-01T12:51:29;42625.59;;;-141.29;100.00
22025;BME280;11176;51.448;6.650;2023-04-01T13:02:01;42611.59;;;-141.29;100.00
22025;BME280;11176;51.448;6.650;2023-04-01T13:07:41;42621.59;;;-141.29;100.00
22025;BME280;11176;51.448;6.650;2023-04-01T13:15:52;42631.56;;;-141.29;100.00
22025;BME280;11176;51.448;6.650;2023-04-01T13:18:38;42661.53;;;-141.29;100.00
22025;BME280;11176;51.448;6.650;2023-04-01T13:21:24;42645.56;;;-141.29;100.00
22025;BME280;11176;51.448;6.650;2023-04-01T13:29:20;42659.53;;;-141.29;100.00
22025;BME280;11176;51.448;6.650;2023-04-01T13:31:58;42663.53;;;-141.29;100.00
22025;BME280;11176;51.448;6.650;2023-04-01T13:38:03;42645.56;;;-141.29;100.00
22025;BME280;11176;51.448;6.650;2023-04-01T13:41:13;42637.56;;;-141.29;100.00
22025;BME280;11176;51.448;6.650;2023-04-01T13:43:50;42637.56;;;-141.29;100.00
22025;BME280;11176;51.448;6.650;2023-04-01T13:47:32;42653.53;;;-141.29;100.00
22025;BME280;11176;51.448;6.650;2023-04-01T13:49:41;42661.53;;;-141.29;100.00
22025;BME280;11176;51.448;6.650;2023-04-01T13:58:01;42655.53;;;-141.29;100.00
22025;BME280;11176;51.448;6.650;2023-04-01T14:00:57;42647.53;;;-141.29;100.00
22025;BME280;11176;51.448;6.650;2023-04-01T14:03:27;42653.53;;;-141.29;100.00
22025;BME280;11176;51.448;6.650;2023-04-01T14:09:17;42657.53;;;-141.29;100.00
22025;BME280;11176;51.448;6.650;2023-04-01T14:12:00;42665.50;;;-141.29;100.00
22025;BME280;11176;51.448;6.650;2023-04-01T14:17:16;42661.53;;;-141.29;100.00
22025;BME280;11176;51.448;6.650;2023-04-01T14:33:43;42689.47;;;-141.29;100.00
22025;BME280;11176;51.448;6.650;2023-04-01T14:36:43;42697.47;;;-141.29;100.00
22025;BME280;11176;51.448;6.650;2023-04-01T14:47:53;42725.41;;;-141.29;100.00
22025;BME280;11176;51.448;6.650;2023-04-01T14:50:24;42725.41;;;-141.29;100.00
22025;BME280;11176;51.448;6.650;2023-04-01T14:55:48;42749.38;;;-141.29;100.00
22025;BME280;11176;51.448;6.650;2023-04-01T14:58:17;42757.38;;;-141.29;100.00
22025;BME280;11176;51.448;6.650;2023-04-01T15:03:56;42765.34;;;-141.29;100.00
22025;BME280;11176;51.448;6.650;2023-04-01T15:06:56;42751.38;;;-141.29;100.00
22025;BME280;11176;51.448;6.650;2023-04-01T15:12:30;42777.34;;;-141.29;100.00
22025;BME280;11176;51.448;6.650;2023-04-01T15:18:03;42793.31;;;-141.29;100.00
22025;BME280;11176;51.448;6.650;2023-04-01T15:20:53;42805.28;;;-141.29;100.00
22025;BME280;11176;51.448;6.650;2023-04-01T15:23:56;42801.31;;;-141.29;100.00
22025;BME280;11176;51.448;6.650;2023-04-01T15:26:53;42805.28;;;-141.29;100.00
22025;BME280;11176;51.448;6.650;2023-04-01T15:32:21;42833.25;;;-141.29;100.00
22025;BME280;11176;51.448;6.650;2023-04-01T15:34:59;42845.22;;;-141.29;100.00
22025;BME280;11176;51.448;6.650;2023-04-01T15:40:43;42865.19;;;-141.29;100.00
22025;BME280;11176;51.448;6.650;2023-04-01T15:43:35;42837.25;;;-141.29;100.00
22025;BME280;11176;51.448;6.650;2023-04-01T15:46:21;42853.22;;;-141.29;100.00
22025;BME280;11176;51.448;6.650;2023-04-01T15:49:18;42869.19;;;-141.29;100.00
22025;BME280;11176;51.448;6.650;2023-04-01T15:52:19;42871.19;;;-141.29;100.00
22025;BME280;11176;51.448;6.650;2023-04-01T15:57:48;42897.16;;;-141.29;100.00
22025;BME280;11176;51.448;6.650;2023-04-01T16:00:30;42887.16;;;-141.29;100.00
22025;BME280;11176;51.448;6.650;2023-04-01T16:03:12;42921.13;;;-141.29;100.00
22025;BME280;11176;51.448;6.650;2023-04-01T16:11:17;42933.09;;;-141.29;100.00
22025;BME280;11176;51.448;6.650;2023-04-01T16:14:11;42933.09;;;-141.29;100.00
22025;BME280;11176;51.448;6.650;2023-04-01T16:17:03;42963.06;;;-141.29;100.00
22025;BME280;11176;51.448;6.650;2023-04-01T16:20:13;42937.09;;;-141.29;100.00
22025;BME280;11176;51.448;6.650;2023-04-01T16:22:35;42965.06;;;-141.29;100.00
22025;BME280;11176;51.448;6.650;2023-04-01T16:25:33;42971.03;;;-141.29;100.00
22025;BME280;11176;51.448;6.650;2023-04-01T16:28:23;42969.03;;;-141.29;100.00
22025;BME280;11176;51.448;6.650;2023-04-01T16:30:57;42977.03;;;-141.29;100.00
22025;BME280;11176;51.448;6.650;2023-04-01T16:36:33;43003.00;;;-141.29;100.00
22025;BME280;11176;51.448;6.650;2023-04-01T16:39:30;43046.94;;;-141.29;100.00
22025;BME280;11176;51.448;6.650;2023-04-01T16:42:23;43034.94;;;-141.29;100.00
22025;BME280;11176;51.448;6.650;2023-04-01T16:48:10;43064.91;;;-141.29;100.00
22025;BME280;11176;51.448;6.650;2023-04-01T16:51:01;43072.88;;;-141.29;100.00
22025;BME280;11176;51.448;6.650;2023-04-01T16:53:47;43044.94;;;-141.29;100.00
22025;BME280;11176;51.448;6.650;2023-04-01T16:56:22;43068.88;;;-141.29;100.00
22025;BME280;11176;51.448;6.650;2023-04-01T16:59:03;43068.88;;;-141.29;100.00
22025;BME280;11176;51.448;6.650;2023-04-01T17:02:26;43084.88;;;-141.29;100.00
22025;BME280;11176;51.448;6.650;2023-04-01T17:04:38;43068.88;;;-141.29;100.00
22025;BME280;11176;51.448;6.650;2023-04-01T17:10:13;43112.81;;;-141.29;100.00
22025;BME280;11176;51.448;6.650;2023-04-01T17:15:38;43136.78;;;-141.29;100.00
22025;BME280;11176;51.448;6.650;2023-04-01T17:21:00;43134.78;;;-141.29;100.00
22025;BME280;11176;51.448;6.650;2023-04-01T17:23:36;43118.81;;;-141.29;100.00
22025;BME280;11176;51.448;6.650;2023-04-01T17:26:22;43178.72;;;-141.29;100.00
22025;BME280;11176;51.448;6.650;2023-04-01T17:41:53;43164.75;;;-141.29;100.00
22025;BME280;11176;51.448;6.650;2023-04-01T17:44:43;43214.69;;;-141.29;100.00
22025;BME280;11176;51.448;6.650;2023-04-01T18:00:27;43226.66;;;-141.29;100.00
22025;BME280;11176;51.448;6.650;2023-04-01T18:11:42;43260.63;;;-141.29;100.00
22025;BME280;11176;51.448;6.650;2023-04-01T18:17:24;43284.56;;;-141.29;100.00
22025;BME280;11176;51.448;6.650;2023-04-01T18:20:20;43296.56;;;-141.29;100.00
22025;BME280;11176;51.448;6.650;2023-04-01T18:22:58;43284.56;;;-141.29;100.00
22025;BME280;11176;51.448;6.650;2023-04-01T18:28:22;43314.53;;;-141.29;100.00
22025;BME280;11176;51.448;6.650;2023-04-01T18:39:12;43326.53;;;-141.29;100.00
22025;BME280;11176;51.448;6.650;2023-04-01T18:44:46;43360.47;;;-141.29;100.00
22025;BME280;11176;51.448;6.650;2023-04-01T18:56:02;43396.41;;;-141.29;100.00
22025;BME280;11176;51.448;6.650;2023-04-01T19:01:37;43384.44;;;-141.29;100.00
22025;BME280;11176;51.448;6.650;2023-04-01T19:04:21;43396.41;;;-141.29;100.00
22025;BME280;11176;51.448;6.650;2023-04-01T19:06:55;43404.41;;;-141.29;100.00
22025;BME280;11176;51.448;6.650;2023-04-01T19:14:48;43422.38;;;-141.29;100.00
22025;BME280;11176;51.448;6.650;2023-04-01T19:30:48;43438.38;;;-141.29;100.00
22025;BME280;11176;51.448;6.650;2023-04-01T19:33:28;43464.31;;;-141.29;100.00
22025;BME280;11176;51.448;6.650;2023-04-01T19:38:36;43488.28;;;-141.29;100.00
22025;BME280;11176;51.448;6.650;2023-04-01T19:41:24;43484.31;;;-141.29;100.00
22025;BME280;11176;51.448;6.650;2023-04-01T19:46:30;43488.28;;;-141.29;100.00
22025;BME280;11176;51.448;6.650;2023-04-01T19:54:41;43516.25;;;-141.29;100.00
22025;BME280;11176;51.448;6.650;2023-04-01T20:11:03;43518.25;;;-141.29;100.00
22025;BME280;11176;51.448;6.650;2023-04-01T20:16:07;43524.25;;;-141.29;100.00
22025;BME280;11176;51.448;6.650;2023-04-01T20:18:50;43552.22;;;-141.29;100.00